If you wish to contribute or participate in the discussions about articles you are invited to join SKYbrary as a registered user

SVMI

From SKYbrary Wiki

Jump to: navigation, search
Airport
Code SVMI
Name Caracas/Maiquetia
Region South America and Caribbean
Territory Venezuela
Location Maiquetia
Elevation

71.627998 m235 ft

Coordinates 10° 36' 11" N, 66° 59' 26" W
All Airports
in SV
SVCO, SVJC, SVMI, SVPA, SVPM, SVPR, SVSA, SVSE, SVSO, SVSP, SVSR, SVST, SVSZ, SVTC, SVTM, SVUM, SVVA, SVVG, SVVL, SVVP
Runways
Designator Length Width Surface
9/27 3027 m9,931.102 ft 44 m144.357 ft ASP
10/28 3500 m11,482.94 ft 45 m147.638 ft ASP


METAR
Observation SVMI 160700Z 00000KT 9999 FEW020 24/19 Q1010 NOSIG
Station Caracas / Maiquetia Aerop. Intl. Simon Bolivar
Elevation 48 metres
Date/Time 16 April 2014 07:00:00
Wind direction
Wind speed 00 kts
Clouds few clouds
Clouds code FEW
Temperature 24°C
Dew point 19°C
Humidity 73%
QNH 1010 hPa
Weather condition n/a


Caracas/Maiquetia International Airport

ICAO: SVMI IATA: CCS

Description

Simón Bolívar International Airport of Maiquetia is an international airport located in Maiquetía, Venezuela, about 21 km11.339 nm
21,000 m
68,897.638 ft
from downtown Caracas.

Climatology

Tropical Savanna climate (Köppen climate classification As & Aw).

Maps

Terrain

Loading map...

Airport Layout

Loading map...


Accidents & Serious Incidents at or in vicinity of SVMI

None on SKYbrary

Personal tools